Time;durP1;ratioP1;P1;durP2;ratioP2;P2;SDS_P1;SDS_P2;PMS_P1;PMS_P2;Temp;Humidity;BMP_temperature;BMP_pressure;BME280_temperature;BME280_humidity;BME280_pressure;Samples;Min_cycle;Max_cycle;Signal;HPM_P1;HPM_P2
2021/12/13 00:03:59;;;;;;;25.75;17.52;;;;;;;0.66;90.15;97783.94;10377082;28;20586;-58
2021/12/13 00:09:03;;;;;;;29.20;20.35;;;;;;;0.69;90.21;97776.41;10376305;28;20075;-58
2021/12/13 00:14:11;;;;;;;24.90;17.45;;;;;;;0.77;90.39;97777.56;10374823;28;20072;-58
2021/12/13 00:19:17;;;;;;;19.23;12.70;;;;;;;0.84;89.98;97778.66;10376576;28;20519;-58
2021/12/13 00:24:32;;;;;;;23.17;14.48;;;;;;;0.86;89.83;97785.56;10376820;28;20455;-58
2021/12/13 00:29:59;;;;;;;19.85;12.50;;;;;;;0.88;89.87;97791.59;10376101;28;20492;-58
2021/12/13 00:35:00;;;;;;;22.42;13.85;;;;;;;0.82;90.01;97796.47;10349918;28;20079;-58
2021/12/13 00:40:09;;;;;;;40.85;21.65;;;;;;;0.85;89.94;97790.59;10344973;28;20103;-58
2021/12/13 00:45:11;;;;;;;22.60;14.18;;;;;;;0.72;89.80;97789.28;10375304;28;20075;-58
2021/12/13 00:50:13;;;;;;;16.55;11.18;;;;;;;0.76;89.95;97795.41;10375265;28;20102;-58
2021/12/13 00:55:14;;;;;;;16.77;11.30;;;;;;;0.83;89.89;97800.78;10373331;28;20541;-58
2021/12/13 01:00:13;;;;;;;16.08;10.93;;;;;;;0.84;89.57;97799.09;10374452;28;20080;-58
2021/12/13 01:05:47;;;;;;;88.28;38.38;;;;;;;0.61;89.78;97786.31;10374701;28;20031;-58
2021/12/13 01:10:52;;;;;;;149.60;65.47;;;;;;;0.58;89.82;97781.09;10367371;28;20080;-58
2021/12/13 01:16:09;;;;;;;32.58;17.85;;;;;;;0.65;89.68;97782.22;10374077;28;20061;-58
2021/12/13 01:21:30;;;;;;;85.72;41.33;;;;;;;0.75;89.65;97774.06;10374202;28;20069;-58
2021/12/13 01:26:39;;;;;;;40.15;21.42;;;;;;;0.75;89.31;97771.50;10373331;28;20064;-58
2021/12/13 01:31:44;;;;;;;22.40;14.23;;;;;;;0.67;89.95;97778.03;10371751;28;20143;-58
2021/12/13 01:36:54;;;;;;;27.98;16.80;;;;;;;0.68;89.76;97779.75;10372390;28;20731;-58
2021/12/13 01:41:58;;;;;;;51.45;28.10;;;;;;;0.66;89.62;97799.25;10373391;28;20490;-58
2021/12/13 01:47:10;;;;;;;35.17;19.95;;;;;;;0.60;89.44;97791.38;10372926;28;20056;-58
2021/12/13 01:52:34;;;;;;;17.30;11.77;;;;;;;0.53;89.20;97786.84;10372737;28;20076;-58
2021/12/13 01:58:06;;;;;;;25.95;14.90;;;;;;;0.34;89.39;97781.03;10369878;28;20087;-58
2021/12/13 02:02:54;;;;;;;16.00;10.60;;;;;;;0.31;89.49;97770.69;10372160;28;20076;-58
2021/12/13 02:08:06;;;;;;;17.38;12.20;;;;;;;0.36;89.14;97781.97;10371983;28;20600;-58
2021/12/13 02:13:10;;;;;;;20.38;13.70;;;;;;;0.24;89.43;97795.09;10372599;28;20069;-58
2021/12/13 02:18:15;;;;;;;17.50;11.07;;;;;;;0.16;89.61;97787.94;10371973;28;20511;-58
2021/12/13 02:23:14;;;;;;;17.83;12.25;;;;;;;0.12;89.65;97794.59;10372012;28;20522;-58
2021/12/13 02:28:18;;;;;;;19.15;13.32;;;;;;;0.09;89.87;97794.47;10372501;28;20092;-58
2021/12/13 02:33:21;;;;;;;18.52;12.32;;;;;;;0.09;90.20;97801.25;10373042;28;20072;-58
2021/12/13 02:38:22;;;;;;;17.17;11.63;;;;;;;0.10;90.23;97806.44;10380441;28;20076;-58
2021/12/13 02:43:31;;;;;;;19.33;12.35;;;;;;;0.12;90.16;97812.44;10379983;28;20080;-58
2021/12/13 02:48:55;;;;;;;20.02;12.15;;;;;;;0.19;90.29;97801.69;10380654;28;20072;-58
2021/12/13 02:54:00;;;;;;;20.00;13.35;;;;;;;0.22;90.25;97812.03;10379470;28;20072;-58
2021/12/13 02:59:04;;;;;;;21.88;13.85;;;;;;;0.29;90.34;97810.59;10379030;28;20083;-58
2021/12/13 03:04:09;;;;;;;24.73;15.60;;;;;;;0.36;90.28;97814.25;10379636;28;20069;-58
2021/12/13 03:09:18;;;;;;;33.13;19.10;;;;;;;0.38;90.27;97808.41;10379461;28;20454;-58
2021/12/13 03:14:25;;;;;;;37.17;21.73;;;;;;;0.45;90.34;97801.84;10379105;28;20071;-58
2021/12/13 03:20:02;;;;;;;22.52;13.98;;;;;;;0.42;90.25;97807.72;10379329;28;20064;-58
2021/12/13 03:25:10;;;;;;;24.90;15.68;;;;;;;0.42;89.89;97809.41;10371477;28;20152;-58
2021/12/13 03:30:21;;;;;;;26.13;16.60;;;;;;;0.54;89.97;97814.13;10378091;28;20072;-58
2021/12/13 03:35:49;;;;;;;24.77;15.90;;;;;;;0.66;89.40;97814.59;10377576;28;20060;-58
2021/12/13 03:40:49;;;;;;;24.75;15.65;;;;;;;0.76;89.43;97815.84;10378222;28;20479;-58
2021/12/13 03:45:51;;;;;;;26.20;16.08;;;;;;;0.81;89.66;97822.84;10376386;28;20452;-58
2021/12/13 03:50:56;;;;;;;23.05;14.20;;;;;;;0.89;89.41;97818.88;10377646;28;20523;-58
2021/12/13 03:56:02;;;;;;;22.77;14.23;;;;;;;0.81;88.92;97824.53;10378047;28;20068;-58
2021/12/13 04:01:10;;;;;;;26.10;16.95;;;;;;;0.75;88.90;97824.28;10377119;28;20555;-58
2021/12/13 04:06:14;;;;;;;28.40;17.13;;;;;;;0.67;88.91;97804.44;10376880;28;20064;-58
2021/12/13 04:11:14;;;;;;;27.88;17.15;;;;;;;0.73;88.90;97811.44;10377047;28;20068;-58
2021/12/13 04:16:30;;;;;;;30.02;18.48;;;;;;;0.75;88.85;97814.94;10376495;28;20091;-58
2021/12/13 04:21:37;;;;;;;29.65;18.08;;;;;;;0.77;88.63;97830.34;10376047;28;20068;-58
2021/12/13 04:26:45;;;;;;;37.95;23.17;;;;;;;0.78;88.77;97847.38;10377378;28;20057;-58
2021/12/13 04:31:44;;;;;;;37.05;21.88;;;;;;;0.74;88.76;97854.06;10375913;28;20075;-58
2021/12/13 04:36:48;;;;;;;;;;;;;;;0.75;88.47;97855.81;10375788;28;20060;-57
2021/12/13 04:41:55;;;;;;;38.45;22.67;;;;;;;0.64;89.26;97857.09;10375396;28;20395;-58
2021/12/13 04:46:55;;;;;;;51.65;32.67;;;;;;;0.69;88.89;97865.81;10375664;28;20071;-58
2021/12/13 04:52:01;;;;;;;40.80;24.98;;;;;;;0.63;88.95;97865.53;10375043;28;20069;-58
2021/12/13 04:57:01;;;;;;;44.72;25.73;;;;;;;0.71;89.12;97879.50;10374009;28;20076;-58
2021/12/13 05:02:05;;;;;;;48.22;28.30;;;;;;;0.77;88.86;97889.09;10374766;28;20075;-58
2021/12/13 05:07:06;;;;;;;65.28;35.55;;;;;;;0.82;89.11;97888.44;10374073;28;20060;-58
2021/12/13 05:12:10;;;;;;;55.25;32.75;;;;;;;0.88;89.18;97886.13;10374323;28;20069;-58
2021/12/13 05:17:38;;;;;;;40.20;24.23;;;;;;;0.90;88.69;97893.88;10374416;28;20068;-58
2021/12/13 05:22:54;;;;;;;35.45;21.90;;;;;;;0.87;88.84;97892.06;10371021;28;20072;-58
2021/12/13 05:28:01;;;;;;;42.03;27.15;;;;;;;0.93;88.46;97903.34;10373756;28;20091;-58
2021/12/13 05:33:06;;;;;;;50.72;32.05;;;;;;;0.97;88.73;97900.09;10372496;28;20072;-58
2021/12/13 05:38:21;;;;;;;53.65;32.47;;;;;;;0.98;88.44;97910.34;10372225;28;20076;-58
2021/12/13 05:43:29;;;;;;;70.10;41.60;;;;;;;0.87;88.14;97911.59;10370511;28;20060;-58
2021/12/13 05:48:34;;;;;;;61.50;36.30;;;;;;;0.76;88.78;97918.88;10373770;28;20065;-58
2021/12/13 05:53:44;;;;;;;65.75;40.20;;;;;;;0.75;88.37;97924.78;10372978;28;20061;-58
2021/12/13 05:58:50;;;;;;;51.53;32.38;;;;;;;0.66;88.47;97921.84;10370209;28;20072;-58
2021/12/13 06:04:31;;;;;;;60.72;37.15;;;;;;;0.71;88.54;97930.59;10370046;28;20496;-58
2021/12/13 06:09:51;;;;;;;58.05;34.88;;;;;;;0.82;88.42;97939.53;10368781;28;20084;-58
2021/12/13 06:14:53;;;;;;;52.83;31.25;;;;;;;0.91;88.50;97936.47;10372478;28;20071;-58
2021/12/13 06:20:02;;;;;;;52.45;31.35;;;;;;;0.97;88.56;97933.31;10367364;28;20068;-58
2021/12/13 06:25:05;;;;;;;116.07;68.63;;;;;;;1.07;88.40;97935.41;10372333;28;20065;-58
2021/12/13 06:30:16;;;;;;;73.40;44.85;;;;;;;0.83;88.26;97936.19;10378979;28;20504;-58
2021/12/13 06:35:53;;;;;;;51.13;32.83;;;;;;;0.72;88.34;97939.97;10369374;28;20479;-58
2021/12/13 06:40:52;;;;;;;46.25;28.73;;;;;;;0.72;88.22;97939.97;10366899;28;20084;-58
2021/12/13 06:45:52;;;;;;;59.50;32.00;;;;;;;0.53;88.14;97946.03;10372174;28;20029;-58
2021/12/13 06:50:50;;;;;;;;;;;;;;;0.52;88.46;97946.81;10359330;28;20069;-58
2021/12/13 06:55:50;;;;;;;38.70;25.00;;;;;;;0.50;88.60;97928.03;10331640;28;19908;-58
2021/12/13 07:00:52;;;;;;;32.17;19.95;;;;;;;0.76;88.13;97957.19;10369056;28;20081;-58
2021/12/13 07:05:54;;;;;;;26.73;16.98;;;;;;;0.78;88.05;97960.69;10369734;28;20069;-58
2021/12/13 07:10:55;;;;;;;27.27;16.65;;;;;;;0.93;88.10;97962.09;10370006;28;20060;-58
2021/12/13 07:16:15;;;;;;;34.65;21.30;;;;;;;1.10;88.08;97976.41;10335874;28;20513;-58
2021/12/13 07:21:21;;;;;;;26.90;17.75;;;;;;;0.99;88.32;97968.34;10318253;28;20121;-58
2021/12/13 07:26:29;;;;;;;38.08;23.95;;;;;;;1.03;87.87;97959.09;10336627;28;20068;-58
2021/12/13 07:31:28;;;;;;;36.70;22.50;;;;;;;1.05;87.86;97960.03;10336884;28;20057;-58
2021/12/13 07:36:29;;;;;;;;;;;;;;;1.00;88.16;97964.09;10336999;28;20068;-58
2021/12/13 07:41:50;;;;;;;42.85;26.90;;;;;;;0.97;88.38;97975.06;10336807;28;20400;-58
2021/12/13 07:47:05;;;;;;;37.22;23.92;;;;;;;1.07;87.97;97971.19;10337080;28;20557;-58
2021/12/13 07:52:05;;;;;;;61.22;37.40;;;;;;;1.19;87.78;97984.44;10336695;28;20516;-58
2021/12/13 07:57:17;;;;;;;55.28;35.35;;;;;;;1.33;87.71;97985.84;10333430;28;20104;-59
2021/12/13 08:02:33;;;;;;;60.15;40.13;;;;;;;1.43;87.81;97981.09;10334919;28;20068;-58
2021/12/13 08:07:43;;;;;;;43.83;27.88;;;;;;;1.39;87.30;97984.34;10315849;28;20473;-58
2021/12/13 08:12:54;;;;;;;41.58;25.55;;;;;;;1.48;87.27;97989.81;10322650;28;20546;-58
2021/12/13 08:17:58;;;;;;;52.88;32.90;;;;;;;1.62;86.55;97992.88;10313687;28;20084;-58
2021/12/13 08:22:59;;;;;;;53.72;34.08;;;;;;;1.77;86.69;97997.72;10328079;28;20069;-58
2021/12/13 08:28:00;;;;;;;52.33;32.53;;;;;;;1.84;85.53;98000.56;10329507;28;20068;-58
2021/12/13 08:33:10;;;;;;;59.35;36.55;;;;;;;1.94;85.17;98006.88;10319041;28;20069;-58
2021/12/13 08:38:09;;;;;;;52.00;33.13;;;;;;;1.95;85.14;98021.44;10335991;28;20076;-58
2021/12/13 08:43:09;;;;;;;58.05;35.97;;;;;;;1.79;85.46;98012.31;10328819;28;20068;-58
2021/12/13 08:48:15;;;;;;;54.83;35.60;;;;;;;2.05;85.47;98018.41;10309994;28;20461;-58
2021/12/13 08:53:24;;;;;;;50.55;32.60;;;;;;;2.22;85.13;98013.88;10322781;28;20493;-58
2021/12/13 08:58:23;;;;;;;50.15;33.58;;;;;;;2.34;84.65;98016.00;10342811;28;20497;-58
2021/12/13 09:03:34;;;;;;;43.88;29.02;;;;;;;2.25;83.74;98013.13;10327917;28;20080;-58
2021/12/13 09:08:44;;;;;;;31.23;20.85;;;;;;;2.15;83.72;98010.22;10309937;28;20072;-58
2021/12/13 09:13:58;;;;;;;24.67;16.45;;;;;;;2.12;81.87;98012.69;10326321;28;20060;-58
2021/12/13 09:19:32;;;;;;;26.55;17.95;;;;;;;2.13;83.40;98008.44;10325588;28;20493;-58
2021/12/13 09:24:37;;;;;;;28.92;18.30;;;;;;;2.28;83.85;98001.31;10279291;28;20081;-58
2021/12/13 09:29:56;;;;;;;40.05;22.73;;;;;;;2.57;84.21;97991.19;10330834;28;20061;-58
2021/12/13 09:35:15;;;;;;;30.90;20.02;;;;;;;2.85;83.25;97985.31;10331503;28;20065;-58
2021/12/13 09:40:16;;;;;;;34.67;22.40;;;;;;;2.92;82.15;97989.81;10327464;28;20077;-58
2021/12/13 09:45:29;;;;;;;28.83;20.15;;;;;;;2.96;82.81;97986.53;10329970;28;20134;-58
2021/12/13 09:50:31;;;;;;;29.52;19.70;;;;;;;2.77;80.69;97974.81;10331784;28;20068;-59
2021/12/13 09:55:36;;;;;;;37.78;23.77;;;;;;;2.74;81.36;97994.31;10342840;28;20064;-59
2021/12/13 10:00:41;;;;;;;31.08;21.15;;;;;;;2.76;80.56;97996.13;10372515;28;20080;-58
2021/12/13 10:05:43;;;;;;;28.48;20.42;;;;;;;2.74;80.93;97990.06;10334988;28;20223;-58
2021/12/13 10:11:00;;;;;;;27.60;17.83;;;;;;;2.94;81.00;97993.31;10329765;28;20138;-58
2021/12/13 10:16:07;;;;;;;47.17;25.80;;;;;;;3.12;80.74;97994.72;10330305;28;20057;-58
2021/12/13 10:21:21;;;;;;;35.80;23.20;;;;;;;3.26;79.99;97995.16;10331629;28;20069;-58
2021/12/13 10:26:23;;;;;;;35.08;25.80;;;;;;;3.31;79.49;97991.94;10317748;28;20072;-58
2021/12/13 10:31:40;;;;;;;36.63;25.67;;;;;;;3.34;78.47;97994.56;10290530;28;20068;-58
2021/12/13 10:36:43;;;;;;;43.33;28.52;;;;;;;3.25;78.09;97994.28;10329004;28;20076;-58
2021/12/13 10:41:47;;;;;;;32.22;22.25;;;;;;;3.25;77.79;97985.72;10330345;28;20072;-59
2021/12/13 10:46:47;;;;;;;35.38;24.88;;;;;;;3.23;78.04;97983.97;10330213;28;20076;-58
2021/12/13 10:51:55;;;;;;;40.22;27.38;;;;;;;3.36;77.97;97982.69;10330099;28;20081;-59
2021/12/13 10:56:58;;;;;;;36.60;25.02;;;;;;;3.47;79.12;97959.03;10259421;28;20082;-58
2021/12/13 11:02:03;;;;;;;48.67;33.50;;;;;;;3.80;78.42;97965.19;10259468;28;20497;-58
2021/12/13 11:07:04;;;;;;;72.28;45.72;;;;;;;3.83;78.06;97962.69;10291047;28;20061;-59
2021/12/13 11:12:08;;;;;;;44.03;29.52;;;;;;;3.90;77.35;97962.88;10290881;28;20501;-59
2021/12/13 11:17:15;;;;;;;35.58;25.25;;;;;;;3.97;76.44;97962.22;10305028;28;20056;-58
2021/12/13 11:22:21;;;;;;;50.72;30.88;;;;;;;3.88;77.12;97957.69;10337813;28;20060;-59
2021/12/13 11:27:27;;;;;;;26.70;18.83;;;;;;;4.05;77.66;97955.59;10294534;28;20062;-58
2021/12/13 11:32:37;;;;;;;32.30;19.65;;;;;;;4.17;77.30;97950.78;10260823;28;20049;-58
2021/12/13 11:37:47;;;;;;;;;;;;;;;4.28;76.62;97951.09;10297427;28;20057;-59
2021/12/13 11:42:52;;;;;;;55.97;35.00;;;;;;;4.38;75.78;97959.91;10296486;28;19956;-58
2021/12/13 11:48:10;;;;;;;25.08;17.77;;;;;;;4.38;74.80;97959.91;10294596;28;20505;-59
2021/12/13 11:53:33;;;;;;;25.25;18.30;;;;;;;4.18;74.66;97957.69;10294228;28;20061;-58
2021/12/13 11:58:35;;;;;;;18.95;13.50;;;;;;;4.35;73.96;97954.69;10295954;28;20077;-58
2021/12/13 12:04:12;;;;;;;15.68;11.30;;;;;;;4.00;72.29;97946.91;10294285;28;20155;-59
2021/12/13 12:09:48;;;;;;;16.17;12.05;;;;;;;3.47;73.01;97948.78;10294256;28;20560;-57
2021/12/13 12:14:59;;;;;;;21.23;15.98;;;;;;;3.36;74.34;97954.47;10269385;28;20080;-57
2021/12/13 12:19:59;;;;;;;21.77;16.30;;;;;;;3.62;74.01;97955.22;10282082;28;20053;-57
2021/12/13 12:25:00;;;;;;;17.58;13.73;;;;;;;3.41;74.08;97960.59;10293963;28;20061;-57
2021/12/13 12:30:05;;;;;;;37.63;23.35;;;;;;;3.41;74.56;97955.47;10294234;28;20049;-57
2021/12/13 12:35:12;;;;;;;18.63;13.63;;;;;;;3.26;73.97;97960.13;10267644;28;20057;-57
2021/12/13 12:40:36;;;;;;;20.05;13.20;;;;;;;3.32;74.87;97950.06;10253064;28;20461;-57
2021/12/13 12:45:41;;;;;;;28.50;18.77;;;;;;;3.46;74.50;97962.44;10252087;28;20106;-57
2021/12/13 12:50:43;;;;;;;18.77;13.77;;;;;;;3.39;73.16;97956.25;10286598;28;20060;-57
2021/12/13 12:55:52;;;;;;;17.58;12.27;;;;;;;3.37;74.19;97971.56;10292683;28;20488;-57
2021/12/13 13:00:54;;;;;;;14.00;10.07;;;;;;;3.51;74.14;97960.88;10290765;28;20130;-57
2021/12/13 13:06:12;;;;;;;16.88;10.82;;;;;;;3.48;74.52;97971.06;10291011;28;20137;-57
2021/12/13 13:11:27;;;;;;;24.75;16.00;;;;;;;3.58;74.72;97973.06;10280917;28;20068;-57
2021/12/13 13:16:29;;;;;;;22.33;15.40;;;;;;;3.57;74.38;97977.31;10263286;28;20057;-57
2021/12/13 13:21:29;;;;;;;24.45;18.30;;;;;;;3.54;74.11;97981.47;10289111;28;20057;-57
2021/12/13 13:26:29;;;;;;;;;;;;;;;3.56;74.95;97987.53;10284435;28;20061;-57
2021/12/13 13:31:37;;;;;;;27.20;19.58;;;;;;;3.56;74.97;97990.09;10282335;28;19971;-57
2021/12/13 13:36:43;;;;;;;27.73;19.38;;;;;;;3.50;74.13;97984.81;10252714;28;20050;-57
2021/12/13 13:41:46;;;;;;;25.48;18.02;;;;;;;3.44;73.97;97991.47;10256325;28;20062;-57
2021/12/13 13:46:45;;;;;;;28.80;20.70;;;;;;;3.55;73.93;97993.50;10291530;28;20068;-57
2021/12/13 13:51:44;;;;;;;;;;;;;;;3.62;73.83;98005.69;10291917;28;20081;-57
2021/12/13 13:56:46;;;;;;;53.78;36.55;;;;;;;3.47;74.58;98007.78;10290483;28;19925;-57
2021/12/13 14:01:53;;;;;;;32.85;22.50;;;;;;;3.54;74.11;98007.13;10291548;28;20061;-57
2021/12/13 14:07:01;;;;;;;30.90;20.52;;;;;;;3.45;74.49;98018.00;10290739;28;20065;-57
2021/12/13 14:12:04;;;;;;;40.25;25.77;;;;;;;3.36;74.67;98017.72;10279051;28;20473;-57
2021/12/13 14:17:04;;;;;;;34.38;24.75;;;;;;;3.30;75.20;98013.25;10250910;28;20058;-57
2021/12/13 14:22:05;;;;;;;28.63;19.42;;;;;;;3.33;75.50;98025.28;10249747;28;20065;-58
2021/12/13 14:27:29;;;;;;;40.95;28.08;;;;;;;3.18;75.24;98023.13;10250035;28;20061;-57
2021/12/13 14:32:29;;;;;;;19.98;14.05;;;;;;;3.08;75.81;98023.66;10261944;28;20057;-57
2021/12/13 14:37:33;;;;;;;26.02;19.58;;;;;;;3.02;76.38;98030.31;10296377;28;20048;-58
2021/12/13 14:42:32;;;;;;;20.88;15.90;;;;;;;3.04;76.92;98042.31;10258994;28;20070;-57
2021/12/13 14:47:46;;;;;;;29.88;20.02;;;;;;;3.02;76.58;98038.00;10258807;28;20073;-57
2021/12/13 14:52:49;;;;;;;35.35;25.08;;;;;;;2.91;77.57;98041.03;10258138;28;20070;-57
2021/12/13 14:57:56;;;;;;;56.78;36.00;;;;;;;2.88;77.89;98039.22;10257240;28;20082;-58
2021/12/13 15:03:02;;;;;;;58.72;39.45;;;;;;;2.94;77.20;98047.13;10257603;28;20073;-58
2021/12/13 15:08:03;;;;;;;36.33;24.70;;;;;;;3.01;77.31;98049.09;10256773;28;20799;-57
2021/12/13 15:13:06;;;;;;;82.10;50.13;;;;;;;3.00;76.99;98044.78;10276582;28;20061;-57
2021/12/13 15:18:11;;;;;;;29.98;20.90;;;;;;;2.97;75.90;98060.03;10296726;28;20068;-57
2021/12/13 15:23:25;;;;;;;47.88;30.73;;;;;;;2.87;76.10;98055.44;10297162;28;20076;-58
2021/12/13 15:28:33;;;;;;;29.00;20.80;;;;;;;2.75;76.61;98061.00;10296966;28;20064;-57
2021/12/13 15:33:37;;;;;;;36.47;25.80;;;;;;;2.70;75.94;98066.78;10296143;28;20054;-58
2021/12/13 15:38:38;;;;;;;26.35;18.52;;;;;;;2.63;76.49;98057.13;10296753;28;20084;-57
2021/12/13 15:43:42;;;;;;;32.58;22.10;;;;;;;2.62;76.57;98060.53;10296401;28;20065;-58
2021/12/13 15:54:08;;;;;;;46.47;27.75;;;;;;;2.64;76.52;98069.16;10257460;28;20494;-57
2021/12/13 15:59:15;;;;;;;47.17;31.95;;;;;;;2.63;76.84;98075.97;10256038;28;20113;-57
2021/12/13 16:04:18;;;;;;;29.85;18.88;;;;;;;2.72;76.27;98078.84;10271968;28;20109;-57
2021/12/13 16:09:21;;;;;;;33.97;22.45;;;;;;;2.71;76.05;98078.78;10256232;28;20065;-58
2021/12/13 16:14:24;;;;;;;13.10;8.88;;;;;;;2.55;76.42;98085.06;10284032;28;20072;-58
2021/12/13 16:19:38;;;;;;;16.95;11.38;;;;;;;2.41;77.48;98087.13;10292802;28;20073;-58
2021/12/13 16:24:39;;;;;;;20.52;15.48;;;;;;;2.45;78.09;98094.09;10294635;28;20057;-58
2021/12/13 16:29:38;;;;;;;20.52;15.77;;;;;;;2.41;78.13;98079.44;10293938;28;20381;-58
2021/12/13 16:34:37;;;;;;;21.38;14.98;;;;;;;2.57;78.01;98102.22;10271184;28;20065;-57
2021/12/13 16:39:37;;;;;;;16.65;11.80;;;;;;;2.41;78.08;98094.81;10273313;28;20076;-57
2021/12/13 16:44:41;;;;;;;18.95;14.50;;;;;;;2.53;78.02;98102.06;10294103;28;20065;-57
2021/12/13 16:49:42;;;;;;;32.35;19.33;;;;;;;2.55;78.71;98106.41;10293918;28;20057;-58
2021/12/13 16:54:45;;;;;;;28.42;19.88;;;;;;;2.69;78.41;98112.03;10293368;28;20065;-58
2021/12/13 16:59:47;;;;;;;26.65;18.90;;;;;;;2.74;78.82;98100.25;10292419;28;20133;-57
2021/12/13 17:04:53;;;;;;;29.83;21.55;;;;;;;2.88;78.44;98126.38;10293405;28;20057;-58
2021/12/13 17:10:11;;;;;;;39.53;27.48;;;;;;;2.89;77.98;98130.69;10292219;28;20064;-57
2021/12/13 17:15:12;;;;;;;41.70;31.52;;;;;;;2.89;77.95;98127.28;10292487;28;20068;-57
2021/12/13 17:20:33;;;;;;;27.13;19.75;;;;;;;2.92;77.85;98130.78;10292595;28;20504;-58
2021/12/13 17:25:31;;;;;;;;;;;;;;;2.93;77.83;98132.56;10291631;28;20099;-57
2021/12/13 17:30:32;;;;;;;37.15;25.55;;;;;;;2.91;77.88;98129.06;10292402;28;20000;-58
2021/12/13 17:35:37;;;;;;;49.67;34.97;;;;;;;2.93;78.06;98137.69;10291331;28;20069;-58
2021/12/13 17:40:49;;;;;;;35.42;25.15;;;;;;;2.99;78.18;98135.31;10291779;28;20068;-57
2021/12/13 17:45:56;;;;;;;34.40;24.83;;;;;;;3.08;78.48;98136.47;10291815;28;20067;-57
2021/12/13 17:51:08;;;;;;;32.38;23.52;;;;;;;3.11;78.41;98140.00;10291377;28;20065;-57
2021/12/13 17:56:11;;;;;;;39.70;29.52;;;;;;;3.14;77.84;98140.09;10290548;28;20073;-58
2021/12/13 18:01:15;;;;;;;48.65;32.97;;;;;;;3.00;78.56;98139.66;10289528;28;20131;-58
2021/12/13 18:06:40;;;;;;;52.88;36.83;;;;;;;2.85;78.67;98127.97;10290387;28;20061;-57
2021/12/13 18:11:42;;;;;;;51.30;36.75;;;;;;;2.95;78.77;98148.84;10289549;28;20050;-57
2021/12/13 18:16:41;;;;;;;47.53;34.13;;;;;;;2.92;77.80;98147.88;10289712;28;20054;-57
2021/12/13 18:21:41;;;;;;;26.98;18.48;;;;;;;2.89;77.70;98143.50;10289362;28;20057;-57
2021/12/13 18:26:43;;;;;;;40.10;28.15;;;;;;;2.86;78.27;98148.50;10289620;28;20057;-57
2021/12/13 18:31:45;;;;;;;37.25;25.70;;;;;;;2.72;78.50;98135.22;10264989;28;20069;-57
2021/12/13 18:36:50;;;;;;;20.77;15.05;;;;;;;2.74;78.85;98148.94;10289628;28;20057;-57
2021/12/13 18:41:53;;;;;;;34.33;22.95;;;;;;;2.40;79.37;98158.78;10289637;28;20079;-57
2021/12/13 18:46:58;;;;;;;20.60;14.20;;;;;;;2.13;80.24;98157.78;10289073;28;20480;-57
2021/12/13 18:51:57;;;;;;;16.70;12.20;;;;;;;1.86;80.57;98151.59;10289695;28;20069;-57
2021/12/13 18:57:12;;;;;;;21.58;13.68;;;;;;;1.89;80.74;98165.38;10289858;28;20049;-57
2021/12/13 19:02:11;;;;;;;25.52;18.17;;;;;;;1.72;80.52;98130.59;10289071;28;20072;-57
2021/12/13 19:07:27;;;;;;;26.55;17.65;;;;;;;1.84;80.82;98155.78;10290629;28;20477;-57
2021/12/13 19:12:29;;;;;;;28.35;18.23;;;;;;;1.54;80.85;98113.69;10274647;28;20100;-57
2021/12/13 19:17:33;;;;;;;33.03;22.55;;;;;;;2.03;80.57;98155.69;10283260;28;20060;-57
2021/12/13 19:22:39;;;;;;;36.17;25.23;;;;;;;2.16;80.02;98159.59;10296875;28;20072;-57
2021/12/13 19:27:46;;;;;;;35.85;22.55;;;;;;;2.14;80.49;98154.41;10295621;28;20140;-57
2021/12/13 19:33:10;;;;;;;32.92;21.98;;;;;;;2.16;79.82;98164.69;10289166;28;20054;-57
2021/12/13 19:38:26;;;;;;;32.60;23.05;;;;;;;2.13;80.52;98164.59;10255042;28;20501;-57
2021/12/13 19:43:52;;;;;;;24.95;17.50;;;;;;;2.09;80.99;98163.63;10255029;28;20506;-57
2021/12/13 19:48:57;;;;;;;25.17;17.92;;;;;;;2.11;80.56;98162.00;10255599;28;20068;-57
2021/12/13 19:54:03;;;;;;;22.77;15.73;;;;;;;2.20;80.29;98179.38;10255865;28;20066;-57
2021/12/13 19:59:18;;;;;;;25.67;18.58;;;;;;;2.22;80.67;98164.94;10254958;28;20140;-57
2021/12/13 20:04:20;;;;;;;28.15;19.58;;;;;;;2.29;80.76;98171.19;10295007;28;20065;-57
2021/12/13 20:09:31;;;;;;;37.08;26.05;;;;;;;2.36;80.52;98168.03;10295382;28;20049;-57
2021/12/13 20:14:32;;;;;;;30.27;23.38;;;;;;;2.40;80.25;98167.34;10295366;28;20053;-57
2021/12/13 20:19:36;;;;;;;30.17;21.63;;;;;;;2.54;80.18;98176.41;10293429;28;20127;-57
2021/12/13 20:24:42;;;;;;;30.23;19.92;;;;;;;2.54;79.79;98176.41;10292469;28;20057;-57
2021/12/13 20:29:51;;;;;;;29.65;19.63;;;;;;;2.41;79.59;98174.19;10261037;28;20054;-57
2021/12/13 20:34:53;;;;;;;22.80;15.37;;;;;;;2.36;80.31;98181.72;10253989;28;20109;-57
2021/12/13 20:40:15;;;;;;;28.55;19.58;;;;;;;2.41;79.81;98178.47;10253488;28;20058;-57
2021/12/13 20:45:18;;;;;;;26.83;18.92;;;;;;;2.35;79.58;98185.09;10286677;28;20060;-58
2021/12/13 20:50:35;;;;;;;20.95;14.95;;;;;;;2.15;80.58;98183.44;10277646;28;20069;-57
2021/12/13 20:55:47;;;;;;;20.73;13.55;;;;;;;2.05;80.81;98186.47;10254409;28;20085;-57
2021/12/13 21:00:49;;;;;;;14.35;10.10;;;;;;;1.99;80.78;98187.09;10292984;28;20080;-57
2021/12/13 21:05:55;;;;;;;25.48;15.25;;;;;;;1.94;81.83;98196.28;10292813;28;20061;-57
2021/12/13 21:11:01;;;;;;;19.55;13.60;;;;;;;1.93;81.36;98192.84;10294035;28;20057;-57
2021/12/13 21:16:12;;;;;;;21.65;13.80;;;;;;;1.96;81.35;98195.53;10292584;28;20516;-57
2021/12/13 21:21:25;;;;;;;30.20;17.63;;;;;;;1.99;81.67;98197.31;10292318;28;20450;-57
2021/12/13 21:26:30;;;;;;;22.98;15.85;;;;;;;2.01;81.94;98193.16;10291782;28;20069;-57
2021/12/13 21:31:37;;;;;;;22.38;15.48;;;;;;;2.00;81.83;98170.03;10292136;28;20073;-57
2021/12/13 21:39:18;;;;;;;21.55;13.75;;;;;;;2.14;81.57;98195.38;10291630;28;20053;-57
2021/12/13 21:42:00;;;;;;;;;;;;;;;2.10;81.90;98203.75;10292246;28;20065;-57
2021/12/13 21:47:08;;;;;;;19.55;11.55;;;;;;;2.03;82.72;98199.19;10291842;28;19979;-58
2021/12/13 21:52:33;;;;;;;19.98;13.07;;;;;;;2.08;82.61;98194.25;10291700;28;20042;-57
2021/12/13 21:57:48;;;;;;;29.35;17.35;;;;;;;2.00;83.02;98193.97;10290925;28;20069;-57
2021/12/13 22:02:49;;;;;;;22.23;14.50;;;;;;;1.99;83.33;98199.03;10291721;28;20139;-57
2021/12/13 22:07:53;;;;;;;19.48;13.90;;;;;;;2.02;83.46;98194.00;10290490;28;20417;-57
2021/12/13 22:13:04;;;;;;;18.23;11.90;;;;;;;2.05;83.77;98196.72;10290403;28;20053;-57
2021/12/13 22:18:16;;;;;;;16.00;9.93;;;;;;;2.12;83.47;98188.47;10291229;28;20064;-57
2021/12/13 22:23:18;;;;;;;15.68;10.15;;;;;;;2.07;84.27;98197.66;10291590;28;20077;-57
2021/12/13 22:28:21;;;;;;;16.02;11.05;;;;;;;2.11;83.51;98191.81;10290501;28;20477;-57
2021/12/13 22:33:23;;;;;;;14.63;9.50;;;;;;;2.15;83.51;98181.75;10290244;28;20045;-57
2021/12/13 22:38:32;;;;;;;16.00;9.07;;;;;;;2.20;83.93;98184.50;10290618;28;20064;-57
2021/12/13 22:44:14;;;;;;;21.55;11.10;;;;;;;2.21;83.62;98185.34;10289733;28;20465;-57
2021/12/13 22:49:22;;;;;;;17.48;11.75;;;;;;;2.28;83.98;98182.25;10287838;28;20069;-57
2021/12/13 22:54:26;;;;;;;15.38;9.65;;;;;;;2.28;83.82;98172.88;10298331;28;20062;-57
2021/12/13 22:59:31;;;;;;;17.33;12.13;;;;;;;2.20;83.28;98173.38;10297751;28;20365;-57
2021/12/13 23:04:35;;;;;;;14.40;8.85;;;;;;;2.11;83.69;98177.34;10297652;28;20072;-57
2021/12/13 23:09:48;;;;;;;14.82;9.18;;;;;;;2.07;83.57;98147.31;10296409;28;20053;-58
2021/12/13 23:14:49;;;;;;;17.33;10.70;;;;;;;2.07;83.75;98160.13;10296167;28;20064;-57
2021/12/13 23:19:48;;;;;;;14.75;8.70;;;;;;;2.12;83.58;98161.16;10294778;28;20064;-57
2021/12/13 23:24:49;;;;;;;16.23;10.15;;;;;;;2.15;83.16;98168.09;10296456;28;20061;-57
2021/12/13 23:29:57;;;;;;;16.27;9.38;;;;;;;2.16;83.37;98173.28;10297269;28;20080;-57
2021/12/13 23:34:59;;;;;;;12.93;8.07;;;;;;;2.12;83.39;98163.72;10296348;28;20064;-57
2021/12/13 23:45:37;;;;;;;17.83;8.82;;;;;;;2.10;83.62;98167.91;10297057;28;20137;-57
2021/12/13 23:50:38;;;;;;;10.20;6.57;;;;;;;2.05;83.56;98164.31;10295140;28;20057;-57